Rockford, Illinois
Current Conditions -  °F | °C
As of 2:54 PM on Saturday 25 Oct 2014 (Local Time) from KRFD Reporting Station
Few Clouds Few Clouds  
Wind Chill: 70°   Ceiling: Unl
Heat Index: 70°   Visibility: 10mi
Dew Point: 30°   Wind: 14mph
Humidity: 23%   Direction: 310°NW
Pressure: 29.96"   Gusts: 28mph
Location:  42.27°N, 89.08°W
Report Text: KRFD 251954Z 31012G24KT 10SM FEW250 21/M01 A2996 RMK AO2 PK WND 30027/1941 SLP143 T02111011
Loading
Personal Weather Stations






























Interactive Weather Map
Tropical Storm Tracking
New forecast layout! Learn more

10-Day Weather Forecast

Advertisements
Track Severe Weather on mobile